Time;durP1;ratioP1;P1;durP2;ratioP2;P2;SDS_P1;SDS_P2;PMS_P1;PMS_P2;Temp;Humidity;BMP_temperature;BMP_pressure;BME280_temperature;BME280_humidity;BME280_pressure;Samples;Min_cycle;Max_cycle;Signal;HPM_P1;HPM_P2
2022/12/02 00:02:29;;;;;;;53.57;19.67;;;2.00;99.90;;;;;;4956678;28;20209;-56
2022/12/02 00:04:59;;;;;;;47.50;18.27;;;2.00;99.90;;;;;;4975533;28;20212;-57
2022/12/02 00:07:26;;;;;;;48.30;18.77;;;1.90;99.90;;;;;;4977734;28;20259;-57
2022/12/02 00:09:54;;;;;;;50.27;19.07;;;1.90;99.90;;;;;;4978783;28;20221;-55
2022/12/02 00:12:23;;;;;;;47.97;19.53;;;1.90;99.90;;;;;;4970813;28;20205;-57
2022/12/02 00:14:57;;;;;;;48.30;19.40;;;2.00;99.90;;;;;;4968187;28;20189;-55
2022/12/02 00:17:25;;;;;;;50.30;18.73;;;2.00;99.90;;;;;;4983442;28;20277;-54
2022/12/02 00:19:51;;;;;;;46.20;18.43;;;1.90;99.90;;;;;;4960912;28;20782;-56
2022/12/02 00:22:19;;;;;;;51.73;19.10;;;1.90;99.90;;;;;;4975803;28;20193;-51
2022/12/02 00:24:46;;;;;;;47.53;18.90;;;1.90;99.90;;;;;;4961013;28;20217;-57
2022/12/02 00:27:12;;;;;;;46.43;19.43;;;1.90;99.90;;;;;;4979518;28;20201;-54
2022/12/02 00:29:39;;;;;;;45.80;17.93;;;1.80;99.90;;;;;;4983084;28;20217;-56
2022/12/02 00:32:08;;;;;;;40.80;15.80;;;1.80;99.90;;;;;;4985094;28;20590;-55
2022/12/02 00:34:34;;;;;;;44.37;18.27;;;1.80;99.90;;;;;;4957292;28;20232;-53
2022/12/02 00:37:01;;;;;;;44.07;17.87;;;1.80;99.90;;;;;;4985047;28;20190;-56
2022/12/02 00:39:28;;;;;;;44.83;17.40;;;1.80;99.90;;;;;;4984325;28;20225;-54
2022/12/02 00:41:55;;;;;;;45.97;17.33;;;1.80;99.90;;;;;;4972030;28;20205;-52
2022/12/02 00:47:08;;;;;;;42.50;16.97;;;1.80;99.90;;;;;;4978381;28;20201;-56
2022/12/02 00:49:35;;;;;;;43.70;17.77;;;1.80;99.90;;;;;;4964121;28;20221;-54
2022/12/02 00:52:01;;;;;;;42.73;17.23;;;1.80;99.90;;;;;;4984821;28;20807;-53
2022/12/02 00:54:28;;;;;;;46.07;17.30;;;1.80;99.90;;;;;;4979106;28;20907;-55
2022/12/02 00:56:55;;;;;;;43.27;18.03;;;1.80;99.90;;;;;;4966824;28;20210;-57
2022/12/02 00:59:22;;;;;;;46.57;19.33;;;1.80;99.90;;;;;;4979243;28;20225;-55
2022/12/02 01:01:49;;;;;;;42.30;17.23;;;1.80;99.90;;;;;;4976689;28;20974;-55
2022/12/02 01:04:17;;;;;;;41.70;18.23;;;1.80;99.90;;;;;;4984611;28;20289;-56
2022/12/02 01:06:46;;;;;;;45.60;18.97;;;1.80;99.90;;;;;;4959253;28;20248;-53
2022/12/02 01:09:13;;;;;;;46.27;18.47;;;1.80;99.90;;;;;;4982595;28;20713;-53
2022/12/02 01:11:39;;;;;;;48.67;19.33;;;1.70;99.90;;;;;;4970455;28;20538;-54
2022/12/02 01:14:08;;;;;;;47.67;19.00;;;1.70;99.90;;;;;;4983323;28;20220;-56
2022/12/02 01:16:35;;;;;;;43.80;17.53;;;1.70;99.90;;;;;;4981595;28;20220;-55
2022/12/02 01:19:02;;;;;;;48.07;18.93;;;1.70;99.90;;;;;;4984278;28;20275;-50
2022/12/02 01:21:30;;;;;;;49.37;18.23;;;1.70;99.90;;;;;;4967995;28;20687;-55
2022/12/02 01:23:56;;;;;;;43.70;18.43;;;1.70;99.90;;;;;;4982713;28;20185;-51
2022/12/02 01:26:23;;;;;;;42.03;18.63;;;1.70;99.90;;;;;;4984998;28;20642;-54
2022/12/02 01:28:50;;;;;;;51.73;19.03;;;1.70;99.90;;;;;;4969832;28;20228;-56
2022/12/02 01:31:18;;;;;;;52.03;19.70;;;1.70;99.90;;;;;;4984152;28;20221;-55
2022/12/02 01:33:44;;;;;;;50.23;19.43;;;1.80;99.90;;;;;;4980961;28;20205;-55
2022/12/02 01:36:11;;;;;;;48.17;20.10;;;1.80;99.90;;;;;;4966308;28;20206;-51
2022/12/02 01:38:40;;;;;;;49.70;19.47;;;1.80;99.90;;;;;;4981730;28;20220;-55
2022/12/02 01:41:07;;;;;;;52.60;22.30;;;1.80;99.90;;;;;;4982489;28;20205;-50
2022/12/02 01:43:34;;;;;;;49.67;20.80;;;1.80;99.90;;;;;;4977505;28;20205;-55
2022/12/02 01:46:02;;;;;;;49.87;20.10;;;1.90;99.90;;;;;;4979990;28;20268;-52
2022/12/02 01:48:29;;;;;;;56.53;20.47;;;1.90;99.90;;;;;;4983859;28;20844;-56
2022/12/02 01:50:57;;;;;;;53.87;21.27;;;1.90;99.90;;;;;;4966006;28;20296;-52
2022/12/02 01:53:24;;;;;;;55.07;20.77;;;1.90;99.90;;;;;;4981988;28;20299;-52
2022/12/02 01:55:52;;;;;;;58.73;22.50;;;1.90;99.90;;;;;;4981453;28;20205;-53
2022/12/02 01:58:24;;;;;;;55.70;22.60;;;1.90;99.90;;;;;;4979765;28;20592;-55
2022/12/02 02:00:51;;;;;;;48.47;21.13;;;1.90;99.90;;;;;;4973102;28;20343;-53
2022/12/02 02:03:18;;;;;;;52.83;22.30;;;1.90;99.90;;;;;;4970086;28;20252;-52
2022/12/02 02:05:46;;;;;;;46.67;20.87;;;1.80;99.90;;;;;;4976721;28;20200;-54
2022/12/02 02:08:13;;;;;;;51.33;22.93;;;1.80;99.90;;;;;;4966314;28;20226;-52
2022/12/02 02:10:43;;;;;;;51.13;22.63;;;1.90;99.90;;;;;;4979131;28;20201;-56
2022/12/02 02:13:14;;;;;;;49.57;21.50;;;1.80;99.90;;;;;;4983837;28;20197;-52
2022/12/02 02:15:43;;;;;;;51.43;21.27;;;1.80;99.90;;;;;;4974758;28;20213;-52
2022/12/02 02:18:11;;;;;;;47.50;21.23;;;1.90;99.90;;;;;;4983157;28;20236;-56
2022/12/02 02:20:40;;;;;;;49.80;21.80;;;1.80;99.90;;;;;;4981287;28;20197;-52
2022/12/02 02:23:17;;;;;;;50.57;22.23;;;1.90;99.90;;;;;;4960156;28;20213;-53
2022/12/02 02:25:47;;;;;;;47.33;21.43;;;1.80;99.90;;;;;;4968149;28;20194;-53
2022/12/02 02:28:17;;;;;;;47.07;21.00;;;1.80;99.90;;;;;;4965893;28;20751;-54
2022/12/02 02:30:46;;;;;;;51.20;22.90;;;1.80;99.90;;;;;;4977029;28;20260;-50
2022/12/02 02:33:15;;;;;;;52.70;22.10;;;1.80;99.90;;;;;;4973241;28;20207;-54
2022/12/02 02:35:43;;;;;;;46.47;21.93;;;1.80;99.90;;;;;;4981628;28;20876;-52
2022/12/02 02:38:14;;;;;;;47.20;22.57;;;1.80;99.90;;;;;;4962528;28;20232;-53
2022/12/02 02:40:42;;;;;;;48.83;21.83;;;1.80;99.90;;;;;;4981387;28;20288;-53
2022/12/02 02:43:10;;;;;;;56.03;22.87;;;1.70;99.90;;;;;;4979712;28;20843;-54
2022/12/02 02:45:40;;;;;;;51.53;21.13;;;1.70;99.90;;;;;;4975800;28;20208;-54
2022/12/02 02:48:09;;;;;;;51.97;22.47;;;1.80;99.90;;;;;;4981782;28;20225;-56
2022/12/02 02:50:38;;;;;;;54.53;22.13;;;1.70;99.90;;;;;;4981203;28;20734;-53
2022/12/02 02:53:07;;;;;;;44.23;21.97;;;1.70;99.90;;;;;;4964624;28;20583;-54
2022/12/02 02:55:34;;;;;;;50.07;21.27;;;1.60;99.90;;;;;;4980134;28;20896;-55
2022/12/02 02:58:17;;;;;;;51.30;22.97;;;1.70;99.90;;;;;;4982534;28;20236;-56
2022/12/02 03:00:50;;;;;;;48.47;22.07;;;1.60;99.90;;;;;;4976445;28;20233;-53
2022/12/02 03:03:21;;;;;;;51.03;22.20;;;1.60;99.90;;;;;;4980097;28;20209;-54
2022/12/02 03:05:51;;;;;;;44.90;21.83;;;1.60;99.90;;;;;;4982856;28;20201;-55
2022/12/02 03:08:17;;;;;;;51.83;22.20;;;1.60;99.90;;;;;;4964060;28;20217;-53
2022/12/02 03:10:45;;;;;;;49.80;23.03;;;1.50;99.90;;;;;;4982665;28;20213;-56
2022/12/02 03:13:13;;;;;;;44.90;20.30;;;1.50;99.90;;;;;;4981191;28;20767;-50
2022/12/02 03:15:40;;;;;;;51.07;22.77;;;1.50;99.90;;;;;;4978022;28;20212;-53
2022/12/02 03:18:07;;;;;;;51.00;23.07;;;1.50;99.90;;;;;;4977098;28;20240;-54
2022/12/02 03:20:34;;;;;;;51.53;24.80;;;1.50;99.90;;;;;;4980412;28;20190;-53
2022/12/02 03:23:02;;;;;;;57.33;23.07;;;1.50;99.90;;;;;;4983457;28;20912;-54
2022/12/02 03:25:28;;;;;;;46.87;21.90;;;1.50;99.90;;;;;;4967089;28;20204;-56
2022/12/02 03:27:56;;;;;;;47.10;22.27;;;1.50;99.90;;;;;;4974274;28;20209;-56
2022/12/02 03:30:24;;;;;;;48.53;22.47;;;1.50;99.90;;;;;;4967174;28;20276;-51
2022/12/02 03:32:51;;;;;;;53.83;23.83;;;1.40;99.90;;;;;;4976616;28;20209;-54
2022/12/02 03:35:18;;;;;;;52.67;22.70;;;1.40;99.90;;;;;;4972539;28;20200;-53
2022/12/02 03:37:45;;;;;;;49.10;22.47;;;1.40;99.90;;;;;;4978533;28;20268;-54
2022/12/02 03:40:13;;;;;;;55.13;22.97;;;1.40;99.90;;;;;;4963963;28;20213;-53
2022/12/02 03:42:40;;;;;;;50.93;23.80;;;1.50;99.90;;;;;;4981940;28;20196;-58
2022/12/02 03:45:09;;;;;;;50.63;23.20;;;1.40;99.90;;;;;;4983570;28;20205;-56
2022/12/02 03:47:37;;;;;;;52.23;23.40;;;1.40;99.90;;;;;;4976505;28;21018;-57
2022/12/02 03:50:05;;;;;;;52.87;25.00;;;1.40;99.90;;;;;;4982453;28;20919;-52
2022/12/02 03:52:32;;;;;;;56.53;23.07;;;1.40;99.90;;;;;;4980067;28;20197;-53
2022/12/02 03:54:59;;;;;;;52.07;24.07;;;1.40;99.90;;;;;;4966934;28;20221;-50
2022/12/02 03:57:26;;;;;;;54.03;23.23;;;1.40;99.90;;;;;;4977688;28;20217;-56
2022/12/02 03:59:53;;;;;;;51.33;21.73;;;1.40;99.90;;;;;;4982184;28;20224;-52
2022/12/02 04:02:20;;;;;;;51.30;22.53;;;1.40;99.90;;;;;;4978854;28;20232;-55
2022/12/02 04:04:49;;;;;;;54.73;24.23;;;1.40;99.90;;;;;;4986862;28;20211;-53
2022/12/02 04:07:16;;;;;;;53.13;23.67;;;1.30;99.90;;;;;;4983058;28;20860;-56
2022/12/02 04:10:05;;;;;;;53.97;23.27;;;1.30;99.90;;;;;;4966050;28;20594;-51
2022/12/02 04:12:32;;;;;;;57.73;23.70;;;1.30;99.90;;;;;;4979761;28;20204;-56
2022/12/02 04:14:59;;;;;;;49.07;23.33;;;1.40;99.90;;;;;;4984177;28;20255;-54
2022/12/02 04:17:26;;;;;;;49.27;22.83;;;1.30;99.90;;;;;;4985482;28;20205;-56
2022/12/02 04:19:54;;;;;;;50.10;23.43;;;1.30;99.90;;;;;;4980062;28;20221;-55
2022/12/02 04:22:21;;;;;;;52.43;23.87;;;1.30;99.90;;;;;;4984527;28;20299;-53
2022/12/02 04:24:48;;;;;;;50.63;22.73;;;1.30;99.90;;;;;;4984673;28;20256;-53
2022/12/02 04:27:15;;;;;;;52.80;22.93;;;1.30;99.90;;;;;;4967174;28;20814;-52
2022/12/02 04:29:42;;;;;;;52.73;22.87;;;1.30;99.90;;;;;;4972952;28;20226;-54
2022/12/02 04:32:30;;;;;;;52.07;22.57;;;1.30;99.90;;;;;;4984690;28;20209;-54
2022/12/02 04:34:59;;;;;;;53.23;23.27;;;1.30;99.90;;;;;;4978817;28;20212;-54
2022/12/02 04:37:26;;;;;;;52.70;23.80;;;1.40;99.90;;;;;;4985471;28;20783;-52
2022/12/02 04:39:53;;;;;;;55.43;23.83;;;1.30;99.90;;;;;;4984788;28;20224;-56
2022/12/02 04:42:20;;;;;;;50.77;22.60;;;1.30;99.90;;;;;;4967044;28;20191;-54
2022/12/02 04:44:47;;;;;;;52.47;22.73;;;1.30;99.90;;;;;;4973355;28;20205;-51
2022/12/02 04:47:14;;;;;;;48.80;21.33;;;1.30;99.90;;;;;;4981718;28;20197;-49
2022/12/02 04:49:41;;;;;;;49.97;21.87;;;1.30;99.90;;;;;;4977100;28;20303;-53
2022/12/02 04:52:09;;;;;;;53.03;23.57;;;1.30;99.90;;;;;;4972098;28;20343;-54
2022/12/02 04:54:36;;;;;;;47.17;23.13;;;1.30;99.90;;;;;;4985467;28;20201;-54
2022/12/02 04:57:02;;;;;;;47.37;22.63;;;1.30;99.90;;;;;;4964851;28;20209;-54
2022/12/02 04:59:29;;;;;;;50.67;22.33;;;1.40;99.90;;;;;;4985678;28;20333;-55
2022/12/02 05:01:57;;;;;;;51.20;24.00;;;1.40;99.90;;;;;;4974219;28;20204;-55
2022/12/02 05:04:24;;;;;;;52.20;22.67;;;1.30;99.90;;;;;;4982843;28;20197;-56
2022/12/02 05:06:50;;;;;;;49.30;23.33;;;1.40;99.90;;;;;;4973068;28;20619;-55
2022/12/02 05:09:19;;;;;;;55.93;22.83;;;1.30;99.90;;;;;;4981329;28;20213;-53
2022/12/02 05:11:45;;;;;;;54.20;22.70;;;1.30;99.90;;;;;;4980742;28;20201;-52
2022/12/02 05:14:12;;;;;;;53.03;23.67;;;1.30;99.90;;;;;;4966219;28;20194;-53
2022/12/02 05:16:39;;;;;;;49.40;23.00;;;1.30;99.90;;;;;;4985330;28;20201;-56
2022/12/02 05:19:06;;;;;;;53.70;22.50;;;1.30;99.90;;;;;;4981110;28;20223;-52
2022/12/02 05:21:33;;;;;;;48.50;21.77;;;1.40;99.90;;;;;;4985447;28;20213;-50
2022/12/02 05:24:00;;;;;;;51.23;23.03;;;1.30;99.90;;;;;;4973313;28;20216;-53
2022/12/02 05:26:28;;;;;;;54.50;23.57;;;1.30;99.90;;;;;;4984135;28;20436;-50
2022/12/02 05:28:55;;;;;;;48.40;23.13;;;1.30;99.90;;;;;;4965533;28;20218;-56
2022/12/02 05:31:22;;;;;;;46.50;21.23;;;1.30;99.90;;;;;;4983542;28;20577;-53
2022/12/02 05:33:49;;;;;;;56.53;22.00;;;1.30;99.90;;;;;;4973721;28;20208;-53
2022/12/02 05:36:16;;;;;;;50.87;22.40;;;1.30;99.90;;;;;;4983842;28;20212;-54
2022/12/02 05:38:44;;;;;;;48.37;22.23;;;1.30;99.90;;;;;;4968799;28;20241;-54
2022/12/02 05:41:11;;;;;;;46.97;22.27;;;1.30;99.90;;;;;;4982830;28;20205;-52
2022/12/02 05:43:41;;;;;;;48.63;22.67;;;1.30;99.90;;;;;;4959308;28;21684;-56
2022/12/02 05:46:13;;;;;;;51.27;23.57;;;1.40;99.90;;;;;;4983267;28;20200;-54
2022/12/02 05:48:40;;;;;;;44.00;20.97;;;1.30;99.90;;;;;;4988032;28;20221;-52
2022/12/02 05:51:11;;;;;;;54.60;22.47;;;1.30;99.90;;;;;;4987395;28;20193;-51
2022/12/02 05:53:39;;;;;;;54.47;22.90;;;1.30;99.90;;;;;;4967958;28;20213;-54
2022/12/02 05:56:10;;;;;;;47.23;21.90;;;1.30;99.90;;;;;;4979829;28;20209;-50
2022/12/02 05:58:40;;;;;;;50.57;22.53;;;1.30;99.90;;;;;;4956901;28;20323;-55
2022/12/02 06:01:20;;;;;;;46.73;20.10;;;1.30;99.90;;;;;;4977439;28;20555;-52
2022/12/02 06:03:47;;;;;;;41.37;20.63;;;1.30;99.90;;;;;;4987724;28;20953;-57
2022/12/02 06:06:15;;;;;;;48.03;20.90;;;1.30;99.90;;;;;;4988754;28;20193;-52
2022/12/02 06:08:42;;;;;;;44.63;22.20;;;1.40;99.90;;;;;;4981281;28;20240;-52
2022/12/02 06:11:23;;;;;;;50.90;21.53;;;1.40;99.90;;;;;;4984408;28;20217;-53
2022/12/02 06:13:52;;;;;;;46.43;20.10;;;1.40;99.90;;;;;;4974675;28;20200;-57
2022/12/02 06:16:23;;;;;;;44.10;20.20;;;1.40;99.90;;;;;;4967885;28;20228;-54
2022/12/02 06:18:50;;;;;;;42.77;20.90;;;1.40;99.90;;;;;;4985443;28;20311;-57
2022/12/02 06:21:22;;;;;;;42.83;21.13;;;1.40;99.90;;;;;;4988512;28;20272;-53
2022/12/02 06:23:50;;;;;;;43.07;20.83;;;1.40;99.90;;;;;;4972895;28;20243;-52
2022/12/02 06:26:18;;;;;;;45.37;20.63;;;1.40;99.90;;;;;;4979269;28;20205;-52
2022/12/02 06:28:47;;;;;;;46.33;20.77;;;1.30;99.90;;;;;;4975169;28;20225;-55
2022/12/02 06:31:18;;;;;;;44.33;20.97;;;1.40;99.90;;;;;;4968488;28;20209;-56
2022/12/02 06:33:48;;;;;;;46.73;21.90;;;1.30;99.90;;;;;;4978739;28;20232;-57
2022/12/02 06:36:18;;;;;;;44.43;19.87;;;1.40;99.90;;;;;;4984706;28;20205;-54
2022/12/02 06:38:49;;;;;;;45.77;21.63;;;1.40;99.90;;;;;;4982434;28;20209;-56
2022/12/02 06:41:20;;;;;;;44.57;20.40;;;1.40;99.90;;;;;;4970966;28;20212;-55
2022/12/02 06:46:33;;;;;;;41.87;19.00;;;1.40;99.90;;;;;;4966862;28;20212;-55
2022/12/02 06:49:01;;;;;;;46.60;20.13;;;1.40;99.90;;;;;;4985622;28;20224;-55
2022/12/02 06:51:27;;;;;;;48.83;21.83;;;1.40;99.90;;;;;;4984967;28;20335;-56
2022/12/02 06:53:54;;;;;;;40.07;20.37;;;1.30;99.90;;;;;;4981016;28;20213;-56
2022/12/02 06:56:24;;;;;;;47.77;19.70;;;1.30;99.90;;;;;;4977455;28;20209;-54
2022/12/02 06:58:56;;;;;;;41.43;19.40;;;1.30;99.90;;;;;;4970525;28;20229;-57
2022/12/02 07:01:33;;;;;;;44.23;20.50;;;1.40;99.90;;;;;;4969313;28;20672;-53
2022/12/02 07:04:26;;;;;;;42.00;20.90;;;1.40;99.90;;;;;;4971165;28;20288;-54
2022/12/02 07:06:58;;;;;;;42.70;19.60;;;1.40;99.90;;;;;;4980464;28;20197;-58
2022/12/02 07:09:32;;;;;;;43.70;18.87;;;1.30;99.90;;;;;;4983173;28;20263;-55
2022/12/02 07:12:00;;;;;;;46.23;20.67;;;1.40;99.90;;;;;;4971483;28;20190;-53
2022/12/02 07:14:43;;;;;;;47.03;20.73;;;1.40;99.90;;;;;;4983468;28;20198;-50
2022/12/02 07:17:19;;;;;;;41.60;18.93;;;1.40;99.90;;;;;;4968612;28;23545;-51
2022/12/02 07:19:48;;;;;;;48.10;20.10;;;1.40;99.90;;;;;;4978074;28;20235;-56
2022/12/02 07:22:17;;;;;;;42.93;19.90;;;1.40;99.90;;;;;;4981290;28;20205;-49
2022/12/02 07:24:51;;;;;;;46.53;20.17;;;1.40;99.90;;;;;;4972483;28;20201;-54
2022/12/02 07:27:22;;;;;;;41.90;17.80;;;1.40;99.90;;;;;;4973691;28;20342;-48
2022/12/02 07:29:51;;;;;;;43.27;20.40;;;1.40;99.90;;;;;;4961716;28;20247;-57
2022/12/02 07:32:19;;;;;;;44.00;20.00;;;1.40;99.90;;;;;;4976469;28;20189;-50
2022/12/02 07:34:46;;;;;;;40.03;19.37;;;1.40;99.90;;;;;;4960433;28;20686;-58
2022/12/02 07:37:13;;;;;;;46.97;19.77;;;1.40;99.90;;;;;;4986259;28;20208;-52
2022/12/02 07:39:41;;;;;;;41.97;18.50;;;1.50;99.90;;;;;;4977524;28;20229;-54
2022/12/02 07:42:07;;;;;;;42.90;19.60;;;1.50;99.90;;;;;;4963423;28;20205;-56
2022/12/02 07:44:34;;;;;;;43.40;19.27;;;1.50;99.90;;;;;;4977628;28;20197;-50
2022/12/02 07:47:01;;;;;;;43.87;19.17;;;1.40;99.90;;;;;;4974127;28;20206;-51
2022/12/02 07:49:29;;;;;;;38.43;19.40;;;1.50;99.90;;;;;;4951111;28;20272;-54
2022/12/02 07:51:56;;;;;;;38.13;19.73;;;1.50;99.90;;;;;;4983612;28;20193;-56
2022/12/02 07:54:23;;;;;;;40.63;19.40;;;1.60;99.90;;;;;;4971082;28;22190;-47
2022/12/02 07:56:49;;;;;;;40.00;18.97;;;1.50;99.90;;;;;;4980215;28;20217;-51
2022/12/02 07:59:16;;;;;;;45.20;19.57;;;1.60;99.90;;;;;;4964053;28;20233;-51
2022/12/02 08:01:44;;;;;;;40.77;20.40;;;1.60;99.90;;;;;;4973086;28;20221;-49
2022/12/02 08:04:11;;;;;;;42.07;19.40;;;1.50;99.90;;;;;;4969520;28;20296;-52
2022/12/02 08:06:39;;;;;;;41.00;18.90;;;1.50;99.90;;;;;;4975912;28;20209;-57
2022/12/02 08:09:05;;;;;;;46.73;19.30;;;1.50;99.90;;;;;;4984553;28;20213;-47
2022/12/02 08:11:32;;;;;;;43.47;20.33;;;1.50;99.90;;;;;;4985107;28;20228;-55
2022/12/02 08:13:59;;;;;;;41.97;19.23;;;1.60;99.90;;;;;;4977203;28;20274;-53
2022/12/02 08:16:26;;;;;;;42.43;18.03;;;1.50;99.90;;;;;;4970860;28;20198;-57
2022/12/02 08:18:53;;;;;;;44.03;19.30;;;1.60;99.90;;;;;;4978334;28;20224;-51
2022/12/02 08:21:20;;;;;;;42.30;18.77;;;1.60;99.90;;;;;;4965058;28;20232;-54
2022/12/02 08:23:48;;;;;;;42.53;19.17;;;1.60;99.90;;;;;;4981221;28;20275;-47
2022/12/02 08:26:15;;;;;;;35.77;18.10;;;1.60;99.90;;;;;;4979369;28;20201;-55
2022/12/02 08:28:42;;;;;;;37.53;18.73;;;1.60;99.90;;;;;;4976325;28;20994;-50
2022/12/02 08:31:09;;;;;;;42.93;19.47;;;1.60;99.90;;;;;;4978042;28;20214;-58
2022/12/02 08:33:35;;;;;;;44.90;19.57;;;1.60;99.90;;;;;;4966352;28;20201;-55
2022/12/02 08:36:03;;;;;;;38.30;19.33;;;1.60;99.90;;;;;;4965888;28;20625;-50
2022/12/02 08:38:30;;;;;;;45.77;19.57;;;1.60;99.90;;;;;;4971198;28;20220;-51
2022/12/02 08:40:58;;;;;;;40.10;18.43;;;1.70;99.90;;;;;;4973809;28;20211;-53
2022/12/02 08:43:25;;;;;;;43.53;19.53;;;1.80;99.90;;;;;;4970363;28;20216;-54
2022/12/02 08:45:51;;;;;;;40.37;19.33;;;1.80;99.90;;;;;;4973456;28;20217;-49
2022/12/02 08:48:19;;;;;;;43.47;19.43;;;1.90;99.90;;;;;;4976480;28;20616;-57
2022/12/02 08:50:45;;;;;;;38.77;18.83;;;1.90;99.90;;;;;;4963788;28;22472;-49
2022/12/02 08:53:12;;;;;;;39.70;19.77;;;1.90;99.90;;;;;;4979024;28;20228;-53
2022/12/02 08:55:39;;;;;;;63.50;33.20;;;1.90;99.90;;;;;;4977026;28;20212;-48
2022/12/02 08:58:09;;;;;;;211.03;130.63;;;1.90;99.90;;;;;;4966049;28;20233;-53
2022/12/02 09:00:36;;;;;;;44.30;21.50;;;1.90;99.90;;;;;;4968096;28;20211;-52
2022/12/02 09:03:05;;;;;;;42.87;19.40;;;2.00;99.90;;;;;;4983464;28;20201;-47
2022/12/02 09:05:32;;;;;;;42.67;20.07;;;2.00;99.90;;;;;;4974820;28;20283;-47
2022/12/02 09:07:58;;;;;;;43.73;19.47;;;2.00;99.90;;;;;;4963113;28;20205;-53
2022/12/02 09:10:25;;;;;;;46.37;19.47;;;2.00;99.90;;;;;;4976681;28;20226;-54
2022/12/02 09:12:52;;;;;;;43.87;21.07;;;2.00;99.90;;;;;;4982578;28;20209;-55
2022/12/02 09:15:20;;;;;;;40.33;18.93;;;2.00;99.90;;;;;;4975484;28;20284;-53
2022/12/02 09:17:47;;;;;;;42.87;19.50;;;2.00;99.90;;;;;;4976670;28;20288;-56
2022/12/02 09:20:15;;;;;;;42.50;20.13;;;2.00;99.90;;;;;;4978700;28;20193;-56
2022/12/02 09:22:44;;;;;;;41.57;19.83;;;2.00;99.90;;;;;;4963361;28;20463;-54
2022/12/02 09:25:11;;;;;;;45.77;19.80;;;2.00;99.90;;;;;;4977380;28;20228;-56
2022/12/02 09:27:39;;;;;;;45.03;19.47;;;2.00;99.90;;;;;;4975076;28;20200;-53
2022/12/02 09:30:07;;;;;;;44.73;21.10;;;2.00;99.90;;;;;;4971403;28;20225;-56
2022/12/02 09:32:35;;;;;;;42.17;19.57;;;2.00;99.90;;;;;;4975053;28;20217;-52
2022/12/02 09:35:02;;;;;;;41.73;21.07;;;2.00;99.90;;;;;;4960940;28;20315;-53
2022/12/02 09:37:30;;;;;;;47.07;19.07;;;2.00;99.90;;;;;;4977831;28;20255;-53
2022/12/02 09:39:57;;;;;;;41.27;19.13;;;2.00;99.90;;;;;;4948403;28;20232;-56
2022/12/02 09:42:24;;;;;;;46.43;20.73;;;2.00;99.90;;;;;;4970348;28;20204;-54
2022/12/02 09:44:51;;;;;;;47.67;20.50;;;2.00;99.90;;;;;;4960875;28;20311;-53
2022/12/02 09:47:19;;;;;;;46.07;20.27;;;2.00;99.90;;;;;;4975597;28;20205;-54
2022/12/02 09:49:47;;;;;;;41.90;19.27;;;2.00;99.90;;;;;;4964186;28;20237;-54
2022/12/02 09:52:18;;;;;;;44.67;20.73;;;2.00;99.90;;;;;;4979459;28;20244;-56
2022/12/02 09:54:46;;;;;;;46.70;21.50;;;2.00;99.90;;;;;;4955975;28;20217;-52
2022/12/02 09:57:14;;;;;;;45.33;19.47;;;2.00;99.90;;;;;;4976952;28;20190;-52
2022/12/02 09:59:42;;;;;;;49.27;20.90;;;2.00;99.90;;;;;;4971593;28;20776;-53
2022/12/02 10:02:20;;;;;;;46.30;22.00;;;2.00;99.90;;;;;;4970373;28;20833;-55
2022/12/02 10:04:48;;;;;;;47.07;21.00;;;2.00;99.90;;;;;;4972089;28;20209;-51
2022/12/02 10:07:15;;;;;;;49.23;20.97;;;2.10;99.90;;;;;;4981125;28;20204;-50
2022/12/02 10:09:42;;;;;;;43.93;20.83;;;2.10;99.90;;;;;;4948279;28;20236;-55
2022/12/02 10:12:10;;;;;;;43.77;20.13;;;2.10;99.90;;;;;;4976759;28;20209;-54
2022/12/02 10:14:37;;;;;;;48.07;20.43;;;2.10;99.90;;;;;;4969920;28;20678;-53
2022/12/02 10:17:14;;;;;;;47.10;21.07;;;2.10;99.90;;;;;;4971165;28;20499;-57
2022/12/02 10:19:41;;;;;;;48.67;21.03;;;2.10;99.90;;;;;;4969136;28;20248;-54
2022/12/02 10:22:14;;;;;;;43.40;20.70;;;2.10;99.90;;;;;;4973127;28;20190;-57
2022/12/02 10:24:40;;;;;;;45.60;20.47;;;2.10;99.90;;;;;;4961770;28;20227;-55
2022/12/02 10:27:07;;;;;;;44.33;21.00;;;2.20;99.90;;;;;;4965041;28;20201;-57
2022/12/02 10:29:35;;;;;;;48.90;23.00;;;2.20;99.90;;;;;;4973690;28;20225;-53
2022/12/02 10:32:04;;;;;;;44.90;20.97;;;2.30;99.90;;;;;;4962054;28;20375;-56
2022/12/02 10:34:32;;;;;;;48.03;22.57;;;2.30;99.90;;;;;;4976572;28;20194;-57
2022/12/02 10:37:15;;;;;;;45.10;20.63;;;2.30;99.90;;;;;;4978487;28;20201;-55
2022/12/02 10:39:42;;;;;;;51.47;21.93;;;2.30;99.90;;;;;;4960960;28;20338;-57
2022/12/02 10:42:19;;;;;;;49.90;22.47;;;2.30;99.90;;;;;;4973188;28;20197;-55
2022/12/02 10:44:47;;;;;;;44.57;22.03;;;2.30;99.90;;;;;;4981093;28;20223;-57
2022/12/02 10:47:20;;;;;;;46.00;21.57;;;2.30;99.90;;;;;;4969071;28;20206;-52
2022/12/02 10:49:50;;;;;;;52.53;22.80;;;2.30;99.90;;;;;;4977067;28;20225;-55
2022/12/02 10:52:21;;;;;;;48.33;21.93;;;2.30;99.90;;;;;;4973502;28;20673;-55
2022/12/02 10:54:51;;;;;;;45.47;21.67;;;2.30;99.90;;;;;;4966194;28;20213;-55
2022/12/02 10:57:23;;;;;;;47.03;21.33;;;2.20;99.90;;;;;;4965897;28;20307;-50
2022/12/02 10:59:50;;;;;;;45.60;20.63;;;2.20;99.90;;;;;;4979169;28;20274;-51
2022/12/02 11:02:23;;;;;;;46.17;21.30;;;2.30;99.90;;;;;;4966293;28;20340;-50
2022/12/02 11:04:51;;;;;;;47.83;21.10;;;2.30;99.90;;;;;;4971137;28;20308;-52
2022/12/02 11:07:21;;;;;;;47.30;22.67;;;2.20;99.90;;;;;;4977292;28;20789;-54
2022/12/02 11:09:52;;;;;;;45.57;21.73;;;2.30;99.90;;;;;;4979816;28;20217;-54
2022/12/02 11:12:35;;;;;;;47.23;21.43;;;2.30;99.90;;;;;;4960103;28;20225;-52
2022/12/02 11:15:05;;;;;;;46.97;20.83;;;2.30;99.90;;;;;;4981038;28;20293;-54
2022/12/02 11:17:46;;;;;;;50.20;22.17;;;2.30;99.90;;;;;;4972418;28;20292;-51
2022/12/02 11:20:29;;;;;;;46.57;21.87;;;2.30;99.90;;;;;;4978119;28;20211;-50
2022/12/02 11:23:21;;;;;;;49.27;21.30;;;2.30;99.90;;;;;;4982789;28;20733;-53
2022/12/02 11:26:02;;;;;;;50.77;21.23;;;2.30;99.90;;;;;;4976376;28;20666;-55
2022/12/02 11:28:47;;;;;;;45.43;21.50;;;2.30;99.90;;;;;;4971366;28;20292;-55
2022/12/02 11:31:22;;;;;;;50.50;21.93;;;2.40;99.90;;;;;;4969329;28;20304;-57
2022/12/02 11:34:25;;;;;;;45.33;21.40;;;2.40;99.90;;;;;;4971032;28;20205;-55
2022/12/02 11:37:32;;;;;;;41.03;20.80;;;2.40;99.90;;;;;;4959440;28;20225;-56
2022/12/02 11:40:02;;;;;;;45.87;19.93;;;2.40;99.90;;;;;;4973313;28;20248;-54
2022/12/02 11:42:30;;;;;;;42.67;20.63;;;2.40;99.90;;;;;;4963590;28;20212;-53
2022/12/02 11:45:33;;;;;;;54.43;23.23;;;2.40;99.90;;;;;;4964112;28;20320;-56
2022/12/02 11:48:02;;;;;;;42.13;21.00;;;2.40;99.90;;;;;;4992622;28;20252;-54
2022/12/02 11:50:37;;;;;;;51.33;22.63;;;2.30;99.90;;;;;;4964650;28;20222;-54
2022/12/02 11:53:13;;;;;;;48.90;22.43;;;2.40;99.90;;;;;;4977338;28;20920;-57
2022/12/02 11:55:43;;;;;;;46.20;21.63;;;2.40;99.90;;;;;;4976125;28;20211;-56
2022/12/02 11:58:17;;;;;;;45.23;21.43;;;2.40;99.90;;;;;;4965459;28;20225;-52
2022/12/02 12:01:00;;;;;;;47.57;20.77;;;2.30;99.90;;;;;;4971005;28;20418;-56
2022/12/02 12:03:27;;;;;;;53.40;22.87;;;2.30;99.90;;;;;;4980383;28;20288;-49
2022/12/02 12:06:09;;;;;;;43.37;20.80;;;2.40;99.90;;;;;;4966911;28;20220;-53
2022/12/02 12:08:37;;;;;;;42.93;19.43;;;2.40;99.90;;;;;;4981146;28;20225;-53
2022/12/02 12:11:23;;;;;;;44.73;21.23;;;2.40;99.90;;;;;;4970741;28;20963;-48
2022/12/02 12:13:58;;;;;;;43.90;21.00;;;2.40;99.90;;;;;;4959413;28;20303;-55
2022/12/02 12:16:25;;;;;;;44.43;20.40;;;2.40;99.90;;;;;;4968739;28;20221;-51
2022/12/02 12:18:53;;;;;;;44.83;20.77;;;2.30;99.90;;;;;;4980630;28;20236;-49
2022/12/02 12:21:44;;;;;;;46.53;21.10;;;2.40;99.90;;;;;;4966403;28;20696;-55
2022/12/02 12:24:41;;;;;;;43.60;19.93;;;2.40;99.90;;;;;;4977661;28;20264;-56
2022/12/02 12:27:32;;;;;;;43.07;20.83;;;2.40;99.90;;;;;;4935665;28;20578;-50
2022/12/02 12:29:59;;;;;;;44.83;19.97;;;2.30;99.90;;;;;;4975130;28;20243;-54
2022/12/02 12:32:26;;;;;;;43.87;20.00;;;2.30;99.90;;;;;;4989295;28;20249;-55
2022/12/02 12:34:53;;;;;;;43.60;20.60;;;2.40;99.90;;;;;;4990625;28;20291;-47
2022/12/02 12:37:20;;;;;;;43.63;20.07;;;2.40;99.90;;;;;;4966624;28;20221;-52
2022/12/02 12:39:47;;;;;;;49.93;20.87;;;2.40;99.90;;;;;;4984622;28;20232;-47
2022/12/02 12:42:15;;;;;;;45.43;20.47;;;2.40;99.90;;;;;;4978996;28;20570;-54
2022/12/02 12:44:41;;;;;;;46.70;20.13;;;2.40;99.90;;;;;;4964815;28;20689;-50
2022/12/02 12:47:08;;;;;;;43.70;21.30;;;2.30;99.90;;;;;;4978515;28;20205;-53
2022/12/02 12:49:35;;;;;;;45.27;19.20;;;2.40;99.90;;;;;;4985580;28;20296;-53
2022/12/02 12:52:20;;;;;;;48.80;19.90;;;2.30;99.90;;;;;;4972404;28;20600;-54
2022/12/02 12:54:49;;;;;;;45.30;20.53;;;2.30;99.90;;;;;;4989856;28;20212;-51